Time;durP1;ratioP1;P1;durP2;ratioP2;P2;SDS_P1;SDS_P2;PMS_P1;PMS_P2;Temp;Humidity;BMP_temperature;BMP_pressure;BME280_temperature;BME280_humidity;BME280_pressure;Samples;Min_cycle;Max_cycle;Signal;HPM_P1;HPM_P2
2022/07/14 00:00:22;;;;;;;2.83;1.90;;;;;;;;;;5058926;28;20222;-75
2022/07/14 00:05:52;;;;;;;;;;;;;;;;;;;;;
2022/07/14 00:08:29;;;;;;;3.57;1.90;;;;;;;;;;5057707;28;20456;-75
2022/07/14 00:11:51;;;;;;;3.07;1.70;;;;;;;;;;5065890;28;20516;-75
2022/07/14 00:14:20;;;;;;;2.83;1.90;;;;;;;;;;5006613;28;20429;-75
2022/07/14 00:16:49;;;;;;;4.60;2.00;;;;;;;;;;5002086;28;20439;-76
2022/07/14 00:19:18;;;;;;;2.70;1.83;;;;;;;;;;4991404;28;20531;-76
2022/07/14 00:21:44;;;;;;;2.73;1.53;;;;;;;;;;4980861;28;20639;-77
2022/07/14 00:24:11;;;;;;;3.57;1.80;;;;;;;;;;4997483;28;20514;-75
2022/07/14 00:26:41;;;;;;;1.97;1.73;;;;;;;;;;4989541;28;20442;-76
2022/07/14 00:29:15;;;;;;;3.20;2.00;;;;;;;;;;5001249;28;20814;-75
2022/07/14 00:35:00;;;;;;;3.37;1.90;;;;;;;;;;4990190;28;20460;-75
2022/07/14 00:37:42;;;;;;;3.23;2.40;;;;;;;;;;5068265;28;21028;-77
2022/07/14 00:40:08;;;;;;;2.50;1.90;;;;;;;;;;5052728;28;20881;-76
2022/07/14 00:45:38;;;;;;;2.17;1.63;;;;;;;;;;5067787;28;21047;-75
2022/07/14 00:48:05;;;;;;;2.10;1.57;;;;;;;;;;5057799;28;20945;-76
2022/07/14 00:53:38;;;;;;;4.00;1.60;;;;;;;;;;5062704;28;20432;-76
2022/07/14 00:56:29;;;;;;;;;;;;;;;;;;;;;
2022/07/14 01:02:00;;;;;;;4.33;2.27;;;;;;;;;;5066114;28;20436;-75
2022/07/14 01:07:29;;;;;;;5.00;2.40;;;;;;;;;;5067953;28;20767;-76
2022/07/14 01:12:49;;;;;;;3.10;2.60;;;;;;;;;;5071091;28;20475;-76
2022/07/14 01:15:19;;;;;;;6.63;2.20;;;;;;;;;;5043880;28;20437;-76
2022/07/14 01:17:50;;;;;;;4.90;2.07;;;;;;;;;;5066075;28;20988;-75
2022/07/14 01:20:47;;;;;;;5.73;2.73;;;;;;;;;;5060854;28;22257;-76
2022/07/14 01:23:14;;;;;;;3.57;2.67;;;;;;;;;;5049777;28;20454;-75
2022/07/14 01:25:54;;;;;;;3.23;2.00;;;;;;;;;;5057231;28;20465;-76
2022/07/14 01:28:50;;;;;;;2.90;1.57;;;;;;;;;;5045066;28;20581;-76
2022/07/14 01:31:25;;;;;;;3.27;1.93;;;;;;;;;;5068081;28;20473;-75
2022/07/14 01:34:32;;;;;;;1.87;1.67;;;;;;;;;;5075917;28;20425;-77
2022/07/14 01:37:17;;;;;;;2.90;1.80;;;;;;;;;;5049823;28;20716;-74
2022/07/14 01:39:43;;;;;;;3.03;1.53;;;;;;;;;;5068923;28;20436;-74
2022/07/14 01:42:09;;;;;;;3.53;1.70;;;;;;;;;;5069695;28;20531;-75
2022/07/14 01:45:00;;;;;;;2.07;1.57;;;;;;;;;;5033495;28;20856;-78
2022/07/14 01:47:26;;;;;;;2.00;1.43;;;;;;;;;;5063445;28;20479;-76
2022/07/14 01:49:52;;;;;;;3.00;1.80;;;;;;;;;;5057590;28;20523;-77
2022/07/14 01:52:40;;;;;;;2.70;1.57;;;;;;;;;;5060244;28;20282;-77
2022/07/14 01:58:14;;;;;;;2.13;1.90;;;;;;;;;;5049879;28;20507;-75
2022/07/14 02:03:50;;;;;;;2.67;1.20;;;;;;;;;;5057123;28;20993;-77
2022/07/14 02:06:53;;;;;;;2.53;1.70;;;;;;;;;;5078835;28;21063;-75
2022/07/14 02:12:56;;;;;;;2.27;1.73;;;;;;;;;;5057528;28;20503;-78
2022/07/14 02:15:22;;;;;;;3.10;1.80;;;;;;;;;;5059409;28;20958;-76
2022/07/14 02:17:48;;;;;;;3.43;1.53;;;;;;;;;;5050847;28;21083;-76
2022/07/14 02:20:14;;;;;;;4.13;2.10;;;;;;;;;;5063019;28;20754;-77
2022/07/14 02:22:41;;;;;;;2.57;1.90;;;;;;;;;;5075145;28;20432;-77
2022/07/14 02:25:07;;;;;;;5.70;1.90;;;;;;;;;;5033796;28;20457;-76
2022/07/14 02:27:33;;;;;;;2.23;1.50;;;;;;;;;;5070406;28;20494;-77
2022/07/14 02:30:00;;;;;;;2.57;1.90;;;;;;;;;;5052033;28;20570;-77
2022/07/14 02:32:38;;;;;;;1.80;1.50;;;;;;;;;;5074961;28;20472;-77
2022/07/14 02:35:06;;;;;;;4.33;1.40;;;;;;;;;;5055498;28;20458;-77
2022/07/14 02:38:25;;;;;;;;;;;;;;;;;;;;;
2022/07/14 02:40:48;;;;;;;3.07;2.30;;;;;;;;;;5056261;28;20504;-77
2022/07/14 02:43:39;;;;;;;4.60;1.50;;;;;;;;;;5066487;28;20440;-76
2022/07/14 02:46:09;;;;;;;2.77;1.50;;;;;;;;;;5061297;28;20475;-76
2022/07/14 02:49:13;;;;;;;2.50;1.20;;;;;;;;;;5054479;28;20866;-78
2022/07/14 02:51:43;;;;;;;1.73;1.20;;;;;;;;;;5001755;28;20568;-78
2022/07/14 02:57:15;;;;;;;2.20;1.67;;;;;;;;;;5001134;28;20422;-77
2022/07/14 03:09:03;;;;;;;3.33;1.70;;;;;;;;;;5007594;28;20443;-76
2022/07/14 03:11:35;;;;;;;2.10;1.37;;;;;;;;;;5044040;28;20473;-76
2022/07/14 03:14:09;;;;;;;2.40;1.40;;;;;;;;;;5066980;28;21221;-76
2022/07/14 03:16:44;;;;;;;1.80;1.43;;;;;;;;;;5066763;28;20455;-76
2022/07/14 03:19:10;;;;;;;2.30;1.30;;;;;;;;;;5068023;28;20440;-76
2022/07/14 03:21:36;;;;;;;1.80;1.43;;;;;;;;;;5062506;28;20474;-77
2022/07/14 03:24:23;;;;;;;2.40;1.40;;;;;;;;;;5034312;28;20741;-77
2022/07/14 03:26:49;;;;;;;2.30;1.70;;;;;;;;;;5046100;28;20949;-77
2022/07/14 03:35:32;;;;;;;3.73;1.67;;;;;;;;;;5040693;28;20443;-76
2022/07/14 03:38:20;;;;;;;1.70;1.40;;;;;;;;;;5071141;28;20490;-76
2022/07/14 03:40:46;;;;;;;2.60;1.30;;;;;;;;;;5071807;28;20479;-76
2022/07/14 03:43:11;;;;;;;2.37;1.40;;;;;;;;;;5071859;28;20526;-76
2022/07/14 03:45:38;;;;;;;1.73;1.47;;;;;;;;;;5056880;28;20433;-75
2022/07/14 03:48:08;;;;;;;1.67;1.43;;;;;;;;;;5057580;28;20196;-76
2022/07/14 03:53:30;;;;;;;2.70;2.13;;;;;;;;;;5059249;28;20456;-76
2022/07/14 03:55:57;;;;;;;2.10;1.33;;;;;;;;;;5044906;28;20442;-76
2022/07/14 03:58:23;;;;;;;2.07;1.70;;;;;;;;;;5064381;28;20446;-76
2022/07/14 04:00:49;;;;;;;2.53;1.80;;;;;;;;;;5072423;28;20451;-77
2022/07/14 04:03:15;;;;;;;2.23;1.30;;;;;;;;;;5068161;28;20513;-75
2022/07/14 04:05:41;;;;;;;2.00;1.73;;;;;;;;;;5044130;28;20700;-77
2022/07/14 04:08:07;;;;;;;1.90;1.50;;;;;;;;;;5056388;28;20450;-77
2022/07/14 04:10:33;;;;;;;2.00;1.80;;;;;;;;;;5070213;28;20476;-76
2022/07/14 04:13:03;;;;;;;1.50;1.30;;;;;;;;;;5072678;28;20434;-77
2022/07/14 04:15:40;;;;;;;2.97;1.83;;;;;;;;;;5067585;28;20450;-76
2022/07/14 04:18:06;;;;;;;5.90;1.90;;;;;;;;;;5067717;28;20554;-76
2022/07/14 04:23:39;;;;;;;4.07;1.80;;;;;;;;;;5071511;28;20478;-76
2022/07/14 04:26:22;;;;;;;3.30;2.07;;;;;;;;;;5068436;28;20448;-78
2022/07/14 04:28:48;;;;;;;2.70;2.40;;;;;;;;;;5055511;28;20448;-77
2022/07/14 04:37:26;;;;;;;3.70;1.67;;;;;;;;;;5037696;28;20449;-76
2022/07/14 04:39:54;;;;;;;3.20;1.53;;;;;;;;;;5071769;28;20429;-76
2022/07/14 04:42:21;;;;;;;2.30;1.50;;;;;;;;;;5040900;28;20673;-78
2022/07/14 04:45:12;;;;;;;2.77;1.40;;;;;;;;;;5066833;28;20729;-77
2022/07/14 04:47:38;;;;;;;1.70;1.40;;;;;;;;;;5075585;28;20445;-79
2022/07/14 04:53:27;;;;;;;3.97;1.87;;;;;;;;;;5043969;28;20445;-78
2022/07/14 04:55:57;;;;;;;2.27;1.63;;;;;;;;;;5054997;28;20441;-77
2022/07/14 04:58:25;;;;;;;1.77;1.50;;;;;;;;;;5027959;28;20446;-78
2022/07/14 05:00:51;;;;;;;2.27;1.50;;;;;;;;;;5074687;28;20425;-76
2022/07/14 05:03:18;;;;;;;2.07;1.47;;;;;;;;;;5033725;28;20533;-80
2022/07/14 05:06:04;;;;;;;2.23;1.63;;;;;;;;;;5056844;28;21315;-78
2022/07/14 05:08:30;;;;;;;1.93;1.67;;;;;;;;;;5052674;28;20517;-77
2022/07/14 05:17:31;;;;;;;3.47;1.67;;;;;;;;;;5057379;28;20451;-76
2022/07/14 05:20:18;;;;;;;3.90;1.90;;;;;;;;;;5062051;28;21033;-76
2022/07/14 05:22:53;;;;;;;5.97;2.30;;;;;;;;;;5025779;28;20549;-76
2022/07/14 05:25:19;;;;;;;2.20;1.70;;;;;;;;;;5038064;28;20950;-76
2022/07/14 05:28:20;;;;;;;3.10;1.83;;;;;;;;;;5077081;28;20434;-76
2022/07/14 05:33:31;;;;;;;2.47;1.60;;;;;;;;;;5064147;28;20436;-75
2022/07/14 05:36:00;;;;;;;3.60;2.07;;;;;;;;;;5073843;28;20469;-76
2022/07/14 05:38:27;;;;;;;4.10;2.63;;;;;;;;;;5028628;28;20472;-76
2022/07/14 05:41:06;;;;;;;2.77;2.07;;;;;;;;;;5070841;28;20504;-76
2022/07/14 05:43:33;;;;;;;3.40;2.57;;;;;;;;;;5071571;28;20495;-76
2022/07/14 05:46:14;;;;;;;3.50;2.10;;;;;;;;;;5047294;28;20434;-76
2022/07/14 05:48:49;;;;;;;4.20;2.23;;;;;;;;;;5066527;28;20805;-76
2022/07/14 05:51:16;;;;;;;3.23;2.03;;;;;;;;;;5043777;28;20568;-76
2022/07/14 05:53:45;;;;;;;4.13;2.50;;;;;;;;;;5049198;28;20515;-76
2022/07/14 05:56:12;;;;;;;4.03;2.40;;;;;;;;;;5044721;28;20442;-76
2022/07/14 05:58:40;;;;;;;2.80;2.50;;;;;;;;;;5071846;28;20429;-77
2022/07/14 06:01:09;;;;;;;2.93;2.17;;;;;;;;;;5072746;28;20449;-77
2022/07/14 06:03:35;;;;;;;3.67;2.43;;;;;;;;;;5070124;28;20462;-76
2022/07/14 06:06:05;;;;;;;3.23;2.30;;;;;;;;;;5056349;28;20906;-76
2022/07/14 06:08:31;;;;;;;6.07;2.10;;;;;;;;;;5058062;28;20449;-76
2022/07/14 06:11:00;;;;;;;4.70;3.53;;;;;;;;;;5059540;28;20524;-76
2022/07/14 06:13:27;;;;;;;8.10;3.20;;;;;;;;;;5069493;28;22093;-76
2022/07/14 06:15:53;;;;;;;3.57;3.27;;;;;;;;;;5059964;28;20429;-77
2022/07/14 06:18:19;;;;;;;3.17;2.13;;;;;;;;;;5075333;28;20469;-76
2022/07/14 06:20:55;;;;;;;6.00;3.40;;;;;;;;;;5041978;28;20804;-76
2022/07/14 06:23:21;;;;;;;7.13;4.47;;;;;;;;;;5056885;28;20449;-77
2022/07/14 06:25:50;;;;;;;3.07;2.77;;;;;;;;;;5047593;28;20491;-77
2022/07/14 06:28:19;;;;;;;6.20;2.50;;;;;;;;;;5073505;28;20488;-76
2022/07/14 06:30:45;;;;;;;6.43;2.97;;;;;;;;;;5050368;28;20473;-77
2022/07/14 06:33:12;;;;;;;13.40;2.70;;;;;;;;;;5068970;28;20443;-77
2022/07/14 06:35:40;;;;;;;3.30;2.70;;;;;;;;;;5067420;28;20933;-77
2022/07/14 06:38:06;;;;;;;4.57;2.97;;;;;;;;;;5071364;28;20437;-77
2022/07/14 06:40:33;;;;;;;5.60;2.50;;;;;;;;;;5075080;28;20540;-77
2022/07/14 06:42:59;;;;;;;5.20;3.00;;;;;;;;;;5075910;28;20433;-77
2022/07/14 06:48:49;;;;;;;4.83;2.50;;;;;;;;;;5073861;28;20473;-77
2022/07/14 06:51:29;;;;;;;6.13;2.70;;;;;;;;;;5070176;28;20897;-77
2022/07/14 06:53:55;;;;;;;4.80;2.07;;;;;;;;;;5068490;28;20445;-78
2022/07/14 06:56:21;;;;;;;10.17;3.53;;;;;;;;;;5050587;28;21049;-76
2022/07/14 06:58:48;;;;;;;3.93;2.30;;;;;;;;;;5049206;28;20444;-77
2022/07/14 07:04:00;;;;;;;6.70;2.03;;;;;;;;;;5070466;28;20429;-77
2022/07/14 07:06:55;;;;;;;2.30;2.00;;;;;;;;;;5045799;28;22177;-77
2022/07/14 07:09:21;;;;;;;3.10;1.80;;;;;;;;;;5067182;28;20464;-76
2022/07/14 07:12:01;;;;;;;2.13;1.67;;;;;;;;;;5067449;28;20480;-77
2022/07/14 07:14:29;;;;;;;2.57;1.63;;;;;;;;;;5054539;28;21281;-77
2022/07/14 07:16:59;;;;;;;5.60;1.93;;;;;;;;;;5075076;28;20806;-76
2022/07/14 07:19:54;;;;;;;5.10;1.60;;;;;;;;;;5059233;28;21249;-77
2022/07/14 07:22:23;;;;;;;3.87;2.07;;;;;;;;;;5074211;28;20437;-76
2022/07/14 07:28:18;;;;;;;2.50;1.77;;;;;;;;;;5045377;28;20472;-77
2022/07/14 07:30:45;;;;;;;2.50;1.73;;;;;;;;;;5010260;28;20528;-76
2022/07/14 07:36:14;;;;;;;2.50;1.80;;;;;;;;;;5076072;28;20423;-76
2022/07/14 07:39:01;;;;;;;3.77;1.90;;;;;;;;;;5076467;28;20485;-76
2022/07/14 07:41:28;;;;;;;4.00;2.00;;;;;;;;;;5062141;28;20449;-76
2022/07/14 07:44:09;;;;;;;2.37;1.67;;;;;;;;;;5071569;28;20524;-76
2022/07/14 07:46:35;;;;;;;3.20;1.97;;;;;;;;;;5062130;28;20522;-75
2022/07/14 07:49:09;;;;;;;2.23;1.67;;;;;;;;;;5052919;28;20453;-76
2022/07/14 07:51:44;;;;;;;3.47;1.90;;;;;;;;;;5080150;28;20516;-75
2022/07/14 07:54:39;;;;;;;4.00;1.80;;;;;;;;;;5054450;28;20444;-76
2022/07/14 07:57:15;;;;;;;2.40;2.03;;;;;;;;;;5062700;28;20448;-76
2022/07/14 08:00:01;;;;;;;2.57;1.70;;;;;;;;;;5066948;28;20866;-76
2022/07/14 08:05:34;;;;;;;2.60;1.93;;;;;;;;;;5073389;28;20490;-76
2022/07/14 08:08:00;;;;;;;4.20;2.00;;;;;;;;;;5062558;28;21077;-76
2022/07/14 08:10:42;;;;;;;3.50;2.33;;;;;;;;;;5044467;28;20560;-78
2022/07/14 08:16:13;;;;;;;2.83;2.33;;;;;;;;;;5075858;28;20436;-75
2022/07/14 08:18:40;;;;;;;2.50;2.10;;;;;;;;;;5058054;28;20433;-76
2022/07/14 08:21:06;;;;;;;2.20;1.77;;;;;;;;;;5061737;28;20425;-77
2022/07/14 08:23:32;;;;;;;4.23;2.00;;;;;;;;;;5058461;28;21048;-77
2022/07/14 08:26:14;;;;;;;3.63;2.00;;;;;;;;;;5041596;28;20441;-77
2022/07/14 08:28:40;;;;;;;2.40;2.13;;;;;;;;;;5033920;28;20457;-76
2022/07/14 08:31:06;;;;;;;2.90;2.60;;;;;;;;;;5070491;28;20485;-77
2022/07/14 08:33:32;;;;;;;3.97;1.87;;;;;;;;;;5054044;28;21101;-76
2022/07/14 08:35:58;;;;;;;2.67;2.17;;;;;;;;;;5080654;28;20578;-78
2022/07/14 08:38:24;;;;;;;2.27;2.00;;;;;;;;;;5055516;28;20449;-76
2022/07/14 08:41:26;;;;;;;5.53;2.07;;;;;;;;;;5077513;28;20425;-76
2022/07/14 08:43:52;;;;;;;5.23;2.17;;;;;;;;;;5044692;28;20184;-78
2022/07/14 08:46:19;;;;;;;4.73;2.43;;;;;;;;;;5063111;28;20448;-77
2022/07/14 08:48:55;;;;;;;5.30;1.70;;;;;;;;;;5047232;28;20974;-77
2022/07/14 08:51:46;;;;;;;3.23;1.83;;;;;;;;;;5075162;28;20563;-78
2022/07/14 08:54:18;;;;;;;3.30;2.23;;;;;;;;;;5050541;28;20489;-76
2022/07/14 08:59:32;;;;;;;3.90;2.10;;;;;;;;;;5028133;28;20507;-79
2022/07/14 09:02:19;;;;;;;4.37;2.10;;;;;;;;;;5037946;28;20827;-79
2022/07/14 09:04:46;;;;;;;3.77;2.10;;;;;;;;;;5066108;28;20476;-78
2022/07/14 09:07:13;;;;;;;2.40;2.17;;;;;;;;;;5028635;28;20505;-77
2022/07/14 09:09:45;;;;;;;3.10;2.27;;;;;;;;;;5046449;28;20440;-78
2022/07/14 09:12:45;;;;;;;3.47;2.10;;;;;;;;;;5058567;28;20485;-79
2022/07/14 09:18:49;;;;;;;3.10;1.63;;;;;;;;;;5073668;28;20440;-78
2022/07/14 09:30:50;;;;;;;2.17;1.80;;;;;;;;;;5072297;28;20710;-76
2022/07/14 09:33:36;;;;;;;;;;;;;;;;;;;;;
2022/07/14 09:36:30;;;;;;;2.80;2.20;;;;;;;;;;5059671;28;20975;-77
2022/07/14 09:42:40;;;;;;;2.07;1.50;;;;;;;;;;5054809;28;20996;-77
2022/07/14 09:45:09;;;;;;;4.27;1.83;;;;;;;;;;5000863;28;20447;-77
2022/07/14 09:57:12;;;;;;;2.90;1.73;;;;;;;;;;5068717;28;20457;-78
2022/07/14 09:59:58;;;;;;;5.27;2.47;;;;;;;;;;5043808;28;20453;-79
2022/07/14 10:02:33;;;;;;;5.87;2.50;;;;;;;;;;5072173;28;21175;-77
2022/07/14 10:05:01;;;;;;;2.40;1.90;;;;;;;;;;5050089;28;20421;-76
2022/07/14 10:07:42;;;;;;;3.30;2.43;;;;;;;;;;5075682;28;20437;-77
2022/07/14 10:22:23;;;;;;;3.13;2.67;;;;;;;;;;5080273;28;20436;-76
2022/07/14 10:25:03;;;;;;;5.03;2.20;;;;;;;;;;5070951;28;22855;-77
2022/07/14 10:27:53;;;;;;;3.23;2.30;;;;;;;;;;5059468;28;20437;-76
2022/07/14 10:30:19;;;;;;;4.10;2.70;;;;;;;;;;4987153;28;20446;-77
2022/07/14 10:36:10;;;;;;;5.17;2.00;;;;;;;;;;4978558;28;20220;-76
2022/07/14 10:42:00;;;;;;;3.63;2.17;;;;;;;;;;5028767;28;20432;-77
2022/07/14 10:44:33;;;;;;;2.37;1.80;;;;;;;;;;5015175;28;20938;-80
2022/07/14 10:47:06;;;;;;;4.13;1.93;;;;;;;;;;5009176;28;20443;-78
2022/07/14 10:52:38;;;;;;;3.73;2.37;;;;;;;;;;5075383;28;20486;-76
2022/07/14 10:55:10;;;;;;;2.77;2.30;;;;;;;;;;5032645;28;21100;-77
2022/07/14 10:57:42;;;;;;;3.00;1.97;;;;;;;;;;5074773;28;20491;-79
2022/07/14 11:00:38;;;;;;;2.87;2.07;;;;;;;;;;5082551;28;20439;-75
2022/07/14 11:03:24;;;;;;;2.40;2.10;;;;;;;;;;5072363;28;20767;-78
2022/07/14 11:09:14;;;;;;;2.27;1.90;;;;;;;;;;5082030;28;20491;-76
2022/07/14 11:11:49;;;;;;;5.70;2.40;;;;;;;;;;5046420;28;20472;-77
2022/07/14 11:17:31;;;;;;;3.30;2.03;;;;;;;;;;5049637;28;20428;-76
2022/07/14 11:20:08;;;;;;;4.20;2.53;;;;;;;;;;5051550;28;20456;-76
2022/07/14 11:22:44;;;;;;;5.60;2.40;;;;;;;;;;5082565;28;20503;-77
2022/07/14 11:25:30;;;;;;;2.70;1.90;;;;;;;;;;5077492;28;22411;-77
2022/07/14 11:27:59;;;;;;;2.80;2.23;;;;;;;;;;5082860;28;20520;-77
2022/07/14 11:39:53;;;;;;;3.17;2.23;;;;;;;;;;5068724;28;20483;-78
2022/07/14 11:42:38;;;;;;;3.67;2.73;;;;;;;;;;5059156;28;20934;-77
2022/07/14 11:45:14;;;;;;;5.60;2.97;;;;;;;;;;5074538;28;20793;-77
2022/07/14 11:50:44;;;;;;;7.13;2.20;;;;;;;;;;5066588;28;20448;-78
2022/07/14 11:53:10;;;;;;;3.40;2.10;;;;;;;;;;5063427;28;20446;-78
2022/07/14 11:58:49;;;;;;;5.20;2.50;;;;;;;;;;5072774;28;20524;-77
2022/07/14 12:01:41;;;;;;;5.20;2.20;;;;;;;;;;5061399;28;20440;-77
2022/07/14 12:04:28;;;;;;;4.07;2.27;;;;;;;;;;5057770;28;20430;-78
2022/07/14 12:07:29;;;;;;;3.80;2.77;;;;;;;;;;5069310;28;20437;-79
2022/07/14 12:09:55;;;;;;;4.23;2.50;;;;;;;;;;5077059;28;20794;-77
2022/07/14 12:12:25;;;;;;;3.33;2.03;;;;;;;;;;5053027;28;20464;-78
2022/07/14 12:14:52;;;;;;;4.73;2.67;;;;;;;;;;5071371;28;20774;-78
2022/07/14 12:17:24;;;;;;;4.83;3.10;;;;;;;;;;5057788;28;21015;-77
2022/07/14 12:23:10;;;;;;;4.20;2.30;;;;;;;;;;5024265;28;20554;-78
2022/07/14 12:29:14;;;;;;;10.17;2.13;;;;;;;;;;5027247;28;20444;-77
2022/07/14 12:35:05;;;;;;;2.37;1.90;;;;;;;;;;5021116;28;20465;-79
2022/07/14 12:38:27;;;;;;;3.03;1.83;;;;;;;;;;5015116;28;20446;-77
2022/07/14 12:41:09;;;;;;;2.97;2.00;;;;;;;;;;5070250;28;20639;-76
2022/07/14 12:43:59;;;;;;;4.53;1.90;;;;;;;;;;5077936;28;20988;-79
2022/07/14 12:46:40;;;;;;;4.60;2.07;;;;;;;;;;5066801;28;20445;-77
2022/07/14 12:52:35;;;;;;;2.83;1.83;;;;;;;;;;5064205;28;20491;-77
2022/07/14 13:01:33;;;;;;;4.03;2.20;;;;;;;;;;5034849;28;20618;-77
2022/07/14 13:04:12;;;;;;;3.97;2.20;;;;;;;;;;4981959;28;20855;-82
2022/07/14 13:06:46;;;;;;;2.90;1.90;;;;;;;;;;5033699;28;20447;-81
2022/07/14 13:09:23;;;;;;;10.30;2.00;;;;;;;;;;5007386;28;20611;-79
2022/07/14 13:11:55;;;;;;;3.20;1.83;;;;;;;;;;5036096;28;20479;-83
2022/07/14 13:14:22;;;;;;;3.40;2.00;;;;;;;;;;5014496;28;20458;-81
2022/07/14 13:16:55;;;;;;;3.40;1.80;;;;;;;;;;5055168;28;20459;-81
2022/07/14 13:19:33;;;;;;;2.83;1.70;;;;;;;;;;5062686;28;20495;-80
2022/07/14 13:22:04;;;;;;;3.03;1.83;;;;;;;;;;5073730;28;20460;-79
2022/07/14 13:24:30;;;;;;;8.33;2.53;;;;;;;;;;5052953;28;20444;-79
2022/07/14 13:27:24;;;;;;;3.07;2.77;;;;;;;;;;5060365;28;20455;-78
2022/07/14 13:36:02;;;;;;;2.40;1.67;;;;;;;;;;5070384;28;20451;-80
2022/07/14 13:38:50;;;;;;;9.87;3.07;;;;;;;;;;5060567;28;20840;-82
2022/07/14 13:41:19;;;;;;;5.93;2.13;;;;;;;;;;5075960;28;20429;-83
2022/07/14 13:44:16;;;;;;;8.90;2.53;;;;;;;;;;5067296;28;20451;-83
2022/07/14 13:46:45;;;;;;;3.23;2.20;;;;;;;;;;5072526;28;20965;-79
2022/07/14 13:52:41;;;;;;;2.40;2.20;;;;;;;;;;5058385;28;20527;-85
2022/07/14 13:55:35;;;;;;;2.43;2.10;;;;;;;;;;5069393;28;20492;-84
2022/07/14 13:58:14;;;;;;;2.43;1.90;;;;;;;;;;5072179;28;20449;-80
2022/07/14 14:03:45;;;;;;;2.63;2.07;;;;;;;;;;5071315;28;20497;-79
2022/07/14 14:09:17;;;;;;;2.70;1.87;;;;;;;;;;5072774;28;20470;-80
2022/07/14 14:11:43;;;;;;;3.20;1.87;;;;;;;;;;5070858;28;20489;-79
2022/07/14 14:14:16;;;;;;;4.17;2.03;;;;;;;;;;5074363;28;20442;-79
2022/07/14 14:16:42;;;;;;;3.53;2.23;;;;;;;;;;5062253;28;20445;-78
2022/07/14 14:22:17;;;;;;;2.40;2.17;;;;;;;;;;5041349;28;20477;-79
2022/07/14 14:24:45;;;;;;;5.50;3.43;;;;;;;;;;5036691;28;21005;-80
2022/07/14 14:27:11;;;;;;;3.80;1.93;;;;;;;;;;5064645;28;20448;-79
2022/07/14 14:32:47;;;;;;;4.13;2.60;;;;;;;;;;5071273;28;20480;-80
2022/07/14 14:38:20;;;;;;;3.58;2.42;;;;;;;;;;5063832;28;20788;-78
2022/07/14 14:40:46;;;;;;;2.63;2.17;;;;;;;;;;5047766;28;20179;-78
2022/07/14 14:43:15;;;;;;;3.67;2.87;;;;;;;;;;5077412;28;21363;-80
2022/07/14 14:45:41;;;;;;;3.07;2.70;;;;;;;;;;5070280;28;20483;-79
2022/07/14 14:48:08;;;;;;;4.40;2.40;;;;;;;;;;5076006;28;20441;-79
2022/07/14 14:51:04;;;;;;;6.00;2.33;;;;;;;;;;5078014;28;20508;-79
2022/07/14 14:53:31;;;;;;;2.40;2.20;;;;;;;;;;5073061;28;20434;-79
2022/07/14 14:55:57;;;;;;;4.27;2.67;;;;;;;;;;5067993;28;20487;-79
2022/07/14 14:58:24;;;;;;;2.83;2.30;;;;;;;;;;5081311;28;20199;-80
2022/07/14 15:04:03;;;;;;;4.33;2.87;;;;;;;;;;5066300;28;20484;-79
2022/07/14 15:07:02;;;;;;;3.80;2.80;;;;;;;;;;5064686;28;20513;-81
2022/07/14 15:09:28;;;;;;;2.83;2.40;;;;;;;;;;5077221;28;20506;-78
2022/07/14 15:11:55;;;;;;;3.30;2.57;;;;;;;;;;5063199;28;20473;-79
2022/07/14 15:14:24;;;;;;;3.33;2.53;;;;;;;;;;5081006;28;20433;-80
2022/07/14 15:16:50;;;;;;;3.00;2.60;;;;;;;;;;5060853;28;20421;-80
2022/07/14 15:19:23;;;;;;;3.80;2.70;;;;;;;;;;5076625;28;20540;-79
2022/07/14 15:21:49;;;;;;;3.03;2.67;;;;;;;;;;5043386;28;20452;-80
2022/07/14 15:24:16;;;;;;;2.83;2.50;;;;;;;;;;5077806;28;20456;-81
2022/07/14 15:26:42;;;;;;;4.50;2.40;;;;;;;;;;5078402;28;20422;-80
2022/07/14 15:29:10;;;;;;;4.83;2.77;;;;;;;;;;5080376;28;20443;-78
2022/07/14 15:31:36;;;;;;;3.00;2.47;;;;;;;;;;5055723;28;20210;-79
2022/07/14 15:34:08;;;;;;;3.83;3.10;;;;;;;;;;5077199;28;20624;-80
2022/07/14 15:36:34;;;;;;;6.07;2.70;;;;;;;;;;5074124;28;20645;-81
2022/07/14 15:41:45;;;;;;;5.20;2.50;;;;;;;;;;5053903;28;20755;-80
2022/07/14 15:44:14;;;;;;;3.13;2.57;;;;;;;;;;5072925;28;20452;-80
2022/07/14 15:46:40;;;;;;;4.47;2.53;;;;;;;;;;5061486;28;20434;-79
2022/07/14 15:49:09;;;;;;;3.10;2.80;;;;;;;;;;5078592;28;20902;-79
2022/07/14 15:51:35;;;;;;;8.27;3.10;;;;;;;;;;5063878;28;20227;-83
2022/07/14 15:54:01;;;;;;;3.93;2.60;;;;;;;;;;5075895;28;20791;-80
2022/07/14 15:56:34;;;;;;;2.80;2.50;;;;;;;;;;5059456;28;21106;-80
2022/07/14 15:59:15;;;;;;;2.83;2.60;;;;;;;;;;5079556;28;20489;-80
2022/07/14 16:01:57;;;;;;;3.00;2.70;;;;;;;;;;5063176;28;20456;-82
2022/07/14 16:07:34;;;;;;;7.17;3.37;;;;;;;;;;5057096;28;20452;-81
2022/07/14 16:10:18;;;;;;;4.90;3.97;;;;;;;;;;5057113;28;20582;-82
2022/07/14 16:12:54;;;;;;;5.13;3.63;;;;;;;;;;5077441;28;20473;-79
2022/07/14 16:15:20;;;;;;;17.23;4.40;;;;;;;;;;5065162;28;20592;-81
2022/07/14 16:17:49;;;;;;;4.53;3.73;;;;;;;;;;5079409;28;20429;-79
2022/07/14 16:20:22;;;;;;;5.93;4.20;;;;;;;;;;5050354;28;20459;-81
2022/07/14 16:23:03;;;;;;;5.77;4.07;;;;;;;;;;5038048;28;20989;-82
2022/07/14 16:25:45;;;;;;;5.53;3.27;;;;;;;;;;5083333;28;20836;-82
2022/07/14 16:28:19;;;;;;;8.40;3.50;;;;;;;;;;5067094;28;20591;-80
2022/07/14 16:30:46;;;;;;;12.83;5.43;;;;;;;;;;5041746;28;20533;-83
2022/07/14 16:33:22;;;;;;;9.27;4.17;;;;;;;;;;5075986;28;20446;-81
2022/07/14 16:35:54;;;;;;;6.93;4.40;;;;;;;;;;5051691;28;20503;-81
2022/07/14 16:38:24;;;;;;;4.33;3.93;;;;;;;;;;5060102;28;20483;-81
2022/07/14 16:41:18;;;;;;;3.80;3.50;;;;;;;;;;5064515;28;20842;-81
2022/07/14 16:43:44;;;;;;;7.13;4.20;;;;;;;;;;5056074;28;20417;-78
2022/07/14 16:46:15;;;;;;;5.63;4.60;;;;;;;;;;5068605;28;21071;-78
2022/07/14 16:48:42;;;;;;;7.10;4.20;;;;;;;;;;5062424;28;20432;-78
2022/07/14 16:51:11;;;;;;;4.73;4.33;;;;;;;;;;5049549;28;20594;-77
2022/07/14 16:53:37;;;;;;;9.40;4.20;;;;;;;;;;5072639;28;20546;-78
2022/07/14 16:56:03;;;;;;;5.73;4.37;;;;;;;;;;5054227;28;20452;-78
2022/07/14 16:58:29;;;;;;;5.77;3.90;;;;;;;;;;5069243;28;20421;-80
2022/07/14 17:00:56;;;;;;;6.33;4.53;;;;;;;;;;5056003;28;20842;-80
2022/07/14 17:03:25;;;;;;;6.10;4.20;;;;;;;;;;5069274;28;20434;-80
2022/07/14 17:08:54;;;;;;;9.27;8.43;;;;;;;;;;5055440;28;20598;-80
2022/07/14 17:11:39;;;;;;;7.87;5.60;;;;;;;;;;5051718;28;21224;-80
2022/07/14 17:14:05;;;;;;;8.57;5.37;;;;;;;;;;5064260;28;20490;-81
2022/07/14 17:16:48;;;;;;;5.30;4.80;;;;;;;;;;5066682;28;20437;-80
2022/07/14 17:19:14;;;;;;;5.40;4.90;;;;;;;;;;5068579;28;20912;-80
2022/07/14 17:21:49;;;;;;;5.30;4.80;;;;;;;;;;5061969;28;20477;-80
2022/07/14 17:24:15;;;;;;;6.23;5.30;;;;;;;;;;5061523;28;20456;-81
2022/07/14 17:26:43;;;;;;;6.57;6.03;;;;;;;;;;5053480;28;20446;-81
2022/07/14 17:29:30;;;;;;;6.00;4.80;;;;;;;;;;5064753;28;20229;-78
2022/07/14 17:31:56;;;;;;;6.70;4.90;;;;;;;;;;5057276;28;21359;-80
2022/07/14 17:34:31;;;;;;;7.53;4.77;;;;;;;;;;5069837;28;20442;-78
2022/07/14 17:36:57;;;;;;;9.30;5.40;;;;;;;;;;5050820;28;20433;-78
2022/07/14 17:39:24;;;;;;;6.73;5.20;;;;;;;;;;5066961;28;20442;-80
2022/07/14 17:42:04;;;;;;;6.33;5.00;;;;;;;;;;5057823;28;20607;-79
2022/07/14 17:44:30;;;;;;;11.93;4.70;;;;;;;;;;5061953;28;20524;-78
2022/07/14 17:46:56;;;;;;;5.20;4.70;;;;;;;;;;5041140;28;20801;-79
2022/07/14 17:49:32;;;;;;;7.50;4.40;;;;;;;;;;5023498;28;20449;-77
2022/07/14 17:52:10;;;;;;;4.60;4.10;;;;;;;;;;5061712;28;20472;-79
2022/07/14 17:54:43;;;;;;;7.03;3.90;;;;;;;;;;5061450;28;20467;-79
2022/07/14 17:57:11;;;;;;;3.83;3.37;;;;;;;;;;5067478;28;20829;-77
2022/07/14 18:02:40;;;;;;;4.90;3.90;;;;;;;;;;5055525;28;20845;-77
2022/07/14 18:05:45;;;;;;;5.50;3.60;;;;;;;;;;5043882;28;20449;-78
2022/07/14 18:08:11;;;;;;;5.17;3.73;;;;;;;;;;5055010;28;20819;-77
2022/07/14 18:10:37;;;;;;;5.63;3.40;;;;;;;;;;5059099;28;20449;-77
2022/07/14 18:13:03;;;;;;;4.80;3.50;;;;;;;;;;5075358;28;20510;-77
2022/07/14 18:15:29;;;;;;;3.80;3.13;;;;;;;;;;5045353;28;20686;-77
2022/07/14 18:17:55;;;;;;;5.93;3.67;;;;;;;;;;5070773;28;20270;-76
2022/07/14 18:20:22;;;;;;;9.63;3.50;;;;;;;;;;5057275;28;20794;-76
2022/07/14 18:22:50;;;;;;;5.00;3.70;;;;;;;;;;5021542;28;20431;-76
2022/07/14 18:25:20;;;;;;;5.87;3.77;;;;;;;;;;5059649;28;20433;-77
2022/07/14 18:31:03;;;;;;;4.17;3.77;;;;;;;;;;5069088;28;20419;-76
2022/07/14 18:33:39;;;;;;;3.60;3.30;;;;;;;;;;5034994;28;20438;-76
2022/07/14 18:36:08;;;;;;;7.00;3.93;;;;;;;;;;5063259;28;20432;-76
2022/07/14 18:38:36;;;;;;;3.70;3.27;;;;;;;;;;5048443;28;20528;-75
2022/07/14 18:41:22;;;;;;;5.43;3.10;;;;;;;;;;5061556;28;20445;-77
2022/07/14 18:46:52;;;;;;;4.13;3.20;;;;;;;;;;5063121;28;20487;-77
2022/07/14 18:49:21;;;;;;;4.00;3.27;;;;;;;;;;5023984;28;20474;-79
2022/07/14 18:51:48;;;;;;;3.50;3.20;;;;;;;;;;5060407;28;20476;-79
2022/07/14 18:54:14;;;;;;;8.97;3.80;;;;;;;;;;5032585;28;20449;-78
2022/07/14 18:56:41;;;;;;;6.50;4.00;;;;;;;;;;5057165;28;20843;-77
2022/07/14 18:59:25;;;;;;;4.70;3.97;;;;;;;;;;5072335;28;20175;-80
2022/07/14 19:01:51;;;;;;;7.50;3.40;;;;;;;;;;5056588;28;20534;-80
2022/07/14 19:07:23;;;;;;;5.60;3.47;;;;;;;;;;5063553;28;20185;-81
2022/07/14 19:09:50;;;;;;;5.43;3.40;;;;;;;;;;5065701;28;20455;-81
2022/07/14 19:15:22;;;;;;;4.23;3.63;;;;;;;;;;5056608;28;20440;-79
2022/07/14 19:24:05;;;;;;;3.30;3.00;;;;;;;;;;5052424;28;20451;-79